Check time and date!

LGTT 090630Z 02017G31KT 9999 FEW025 12/02 Q1016 RMK FEW080 SCT180
TAF LGTT 090400Z 0906/0915 03018G28KT 9999 FEW020
--------------------------------------
LGMG 090400Z 0906/0915 01012KT 9999 FEW020
TAF LGMG 090400Z 0906/0915 01012KT 9999 FEW020
--------------------------------------
LGTG 090620Z 33010KT 9999 FEW030 12/03 Q1020 RMK SCT100 BKN180
--------------------------------------
LGEL 090620Z 34011KT 9999 FEW025 14/03 Q1017 RMK FEW080 BKN180
TAF LGEL 090500Z 0906/1006 35015G25KT 9999 FEW025 SCT060
--------------------------------------
LGAV 090620Z 03021G32KT 9999 FEW030 13/M01 Q1018 RMK SCT180 NOSIG
TAF LGAV 090500Z 0906/1006 01018G28KT 9999 FEW025 SCT060 BECMG 0919/0921 32012G22KT
--------------------------------------
LGAT 090600Z 36005KT 9999 FEW030 14/M04 Q1017 RMK FEW080 SCT180
--------------------------------------
METAR LGAD 090620Z 35005KT CAVOK 14/04 Q1019
METAR LGAL 090620Z 10008KT CAVOK 07/00 Q1021
METAR LGAV 090620Z 03021G32KT 9999 FEW030 13/M01 Q1018 NOSIG
METAR LGBL 090620Z 33005KT CAVOK 13/04 Q1021
METAR LGEL 090620Z 34011KT 9999 FEW025 14/03 Q1017
METAR LGHI 090550Z 01017KT 9999 FEW025 11/06 Q1015
METAR LGIO 090620Z VRB02KT CAVOK 09/M02 Q1020
METAR LGIR 090620Z 30016KT 9999 SCT020 14/07 Q1016 NOSIG
METAR LGKF 090550Z 02005KT CAVOK 14/00 Q1018
METAR LGKL 090620Z 32004KT CAVOK 11/03 Q1018
METAR LGKO 090620Z 35006KT 9999 FEW025 14/10 Q1012
METAR LGKP 090620Z 31020KT 9999 FEW018 16/11 Q1013
METAR LGKR 090620Z 00000KT CAVOK 10/08 Q1019 NOSIG
METAR LGKV 090620Z 13004KT CAVOK 12/05 Q1021
METAR LGKZ 090550Z 00000KT 9999 FEW070 08/M03 Q1022
METAR LGLM 090620Z 05019G30KT 9999 FEW020 11/M03 Q1019
METAR LGLR 090550Z 00000KT CAVOK 08/03 Q1022 RMK FEW180 BLU
METAR LGMT 090620Z 00000KT CAVOK 11/05 Q1017
METAR LGNX 090620Z 36010G20KT 9999 SCT025 13/08 Q1016
METAR LGPA 090550Z 36010KT 9999 FEW025 12/07 Q1016
METAR LGPZ 090620Z 06005KT CAVOK 13/05 Q1020
METAR LGRP 090620Z 29008KT 9999 FEW020 16/13 Q1012 RMK NOSIG
METAR LGRX 090620Z 00000KT 9999 FEW080 11/06 Q1019
METAR LGSA 090620Z 30008KT 9999 SCT025 12/04 Q1016
METAR LGSK 090550Z 01010KT 9999 FEW020 14/06 Q1019
METAR LGSM 090550Z 02011KT CAVOK 12/06 Q1014
METAR LGSR 090620Z 35018KT 9999 SCT025 13/07 Q1015
METAR LGSY 090550Z 01017G29KT 9999 FEW020 11/03 Q1019 RMK FEW080 SCT180 BLU
METAR LGTG 090550Z 32008KT 9999 FEW030 11/03 Q1020 RMK FEW080 BKN180 BLU
METAR LGTS 090620Z VRB02KT CAVOK 11/05 Q1021 NOSIG
METAR LGZA 090550Z 35007KT CAVOK 15/07 Q1018

--------------------------------------
TAF LGAD 090500Z 0906/0915 VRB03KT 9999 FEW025 BECMG 0910/0912 33010KT
TAF LGAL 090500Z 0906/0915 04018G28KT 9999 FEW020 BECMG 0907/0909 04018KT
TAF LGAV 090500Z 0906/1006 01018G28KT 9999 FEW025 SCT060 BECMG 0919/0921 32012G22KT
TAF LGBL 090500Z 0906/0915 35007KT 9999 FEW030
TAF LGEL 090500Z 0906/1006 35015G25KT 9999 FEW025 SCT060
TAF LGHI 090500Z 0906/0915 02018G28KT 9999 FEW020
TAF LGIO 090500Z 0906/0915 VRB03KT CAVOK
TAF LGIR 090500Z 0906/1006 32018KT 9999 FEW018 SCT030 PROB30 TEMPO 0907/0917 5000 RA FEW010TCU SCT012 BKN020
TAF LGKC 090500Z 0906/0915 01015G25KT 9999 FEW016 SCT025 BECMG 0910/0912 03016KT
TAF LGKF 090500Z 0906/0915 35010KT 9999 FEW020
TAF LGKL 090500Z 0906/0915 34007KT 9999 FEW025 TEMPO 0909/0915 15008KT
TAF LGKO 090500Z 0906/1006 33020KT 9999 FEW020 SCT040
TAF LGKP 090500Z 0906/0915 30020KT 9999 SCT018 SCT060 PROB30 TEMPO 0906/0915 5000 RA
TAF LGKR 090500Z 0906/1006 28008KT 9999 FEW020 BECMG 0913/0915 32015KT BECMG 0919/0921 VRB03KT
TAF LGKV 090500Z 0906/1006 VRB03KT CAVOK
TAF LGLM 090500Z 0906/0915 05015G25KT 9999 FEW025
TAF LGLR 090500Z 0906/0915 VRB03KT 9999 FEW030 TEMPO 0910/0915 10008KT
TAF LGMK 090500Z 0906/0915 35025G35KT 9999 FEW020 SCT030
TAF LGMT 090500Z 0906/0915 02015G25KT 9999 FEW020
TAF LGPZ 090500Z 0906/1006 VRB03KT 9999 FEW020 TEMPO 0911/0916 28010KT
TAF LGRP 090500Z 0906/1006 28013KT 9999 FEW018 SCT030 PROB30 TEMPO 0906/0919 5000 RA FEW010TCU SCT015 BKN020 PROB30 TEMPO 0909/0915 3000 SHRA FEW018CB BKN020
TAF LGRX 090500Z 0906/0915 VRB03KT 9999 FEW025 BECMG 0910/0912 29010KT
TAF LGSA 090500Z 0906/1006 35015KT 9999 SCT025 TEMPO 0920/0924 28012KT PROB30 TEMPO 0908/0916 5000 RA SCT012 BKN020
TAF LGSK 090500Z 0906/0915 03018KT 9999 FEW020 BECMG 0907/0909 35016KT
TAF LGSM 090500Z 0906/0915 34015KT 9999 FEW025
TAF LGSR 090500Z 0906/1006 35016G26KT 9999 FEW020 SCT025
TAF LGST 090500Z 0906/0915 30020G30KT 9999 SCT015 BKN030 PROB30 TEMPO 0906/0909 5000 RA SCT010 FEW012TCU BKN020
TAF LGSY 090500Z 0906/0915 02015G30KT 9999 FEW025
TAF LGTG 090500Z 0906/0915 33010KT 9999 FEW030
TAF LGTL 090500Z 0906/0915 35010KT 9999 SCT008 BKN020 PROB30 TEMPO 0906/0915 5000 RA
TAF LGTS 090500Z 0906/1006 35010KT CAVOK BECMG 0912/0914 VRB03KT
TAF LGZA 090500Z 0906/0915 02010KT 9999 FEW020 BECMG 0910/0912 30010KT